Time;durP1;ratioP1;P1;durP2;ratioP2;P2;SDS_P1;SDS_P2;PMS_P1;PMS_P2;Temp;Humidity;BMP_temperature;BMP_pressure;BME280_temperature;BME280_humidity;BME280_pressure;Samples;Min_cycle;Max_cycle;Signal;HPM_P1;HPM_P2
2022/12/17 13:06:44;;;;;;;495.50;441.90;;;;;;;-0.58;70.02;102316.03;4164145;28;24454;-59
2022/12/17 13:08:47;;;;;;;473.02;411.88;;;;;;;-0.59;70.11;102324.97;4174027;28;24440;-59
2022/12/17 13:10:52;;;;;;;487.88;434.73;;;;;;;-0.67;70.09;102317.31;4165100;28;24504;-60
2022/12/17 13:12:55;;;;;;;471.20;404.07;;;;;;;-0.70;70.30;102316.59;4168319;28;24491;-60
2022/12/17 13:15:17;;;;;;;473.23;401.15;;;;;;;-0.74;70.52;102324.69;4164894;28;21390;-59
2022/12/17 13:17:27;;;;;;;471.02;392.08;;;;;;;-0.74;70.58;102315.84;4162936;28;24535;-63
2022/12/17 13:19:36;;;;;;;468.58;395.30;;;;;;;-0.76;70.61;102323.88;4160881;28;25026;-58
2022/12/17 13:21:39;;;;;;;473.35;409.98;;;;;;;-0.75;70.82;102327.41;4162673;28;20816;-59
2022/12/17 13:23:41;;;;;;;465.10;383.95;;;;;;;-0.74;70.84;102324.69;4162011;28;24515;-56
2022/12/17 13:25:45;;;;;;;465.73;387.95;;;;;;;-0.70;70.75;102317.44;4158468;28;25093;-56
2022/12/17 13:27:49;;;;;;;465.98;391.70;;;;;;;-0.69;70.87;102326.25;4162993;28;25319;-59
2022/12/17 13:29:51;;;;;;;465.27;382.60;;;;;;;-0.68;70.85;102322.69;4163087;28;20872;-60
2022/12/17 13:32:03;;;;;;;466.77;397.60;;;;;;;-0.63;70.99;102320.69;4159592;28;24551;-60
2022/12/17 13:34:12;;;;;;;471.15;412.38;;;;;;;-0.63;70.81;102326.00;4158018;28;25147;-59
2022/12/17 13:36:20;;;;;;;465.77;383.20;;;;;;;-0.63;70.76;102326.84;4162158;28;24544;-60
2022/12/17 13:38:31;;;;;;;468.95;402.85;;;;;;;-0.62;70.57;102331.25;4166516;28;24908;-60
2022/12/17 13:40:39;;;;;;;466.38;394.90;;;;;;;-0.61;70.78;102334.75;4158260;28;24537;-64
2022/12/17 13:42:45;;;;;;;464.15;381.02;;;;;;;-0.61;70.88;102335.63;4164646;28;24515;-61
2022/12/17 13:44:49;;;;;;;469.63;402.25;;;;;;;-0.59;70.78;102339.09;4157757;28;20890;-59
2022/12/17 13:46:52;;;;;;;465.40;388.45;;;;;;;-0.57;70.55;102334.56;4151987;28;24523;-59
2022/12/17 13:48:59;;;;;;;467.83;400.35;;;;;;;-0.58;70.44;102339.94;4160670;28;24977;-61
2022/12/17 13:51:03;;;;;;;470.77;412.17;;;;;;;-0.61;70.43;102343.59;4164692;28;24507;-60
2022/12/17 13:53:10;;;;;;;468.10;403.27;;;;;;;-0.59;70.63;102354.16;4166573;28;24594;-60
2022/12/17 13:55:18;;;;;;;469.67;392.63;;;;;;;-0.65;70.59;102354.41;4151847;28;24543;-60
2022/12/17 13:57:22;;;;;;;470.75;411.80;;;;;;;-0.64;70.67;102351.69;4160427;28;24550;-59
2022/12/17 13:59:24;;;;;;;475.70;422.00;;;;;;;-0.61;70.58;102359.53;4156551;28;25049;-60
2022/12/17 14:01:29;;;;;;;468.55;396.95;;;;;;;-0.60;70.50;102365.69;4159677;28;24519;-60
2022/12/17 14:03:31;;;;;;;467.75;395.05;;;;;;;-0.60;70.50;102363.88;4172715;28;20872;-60
2022/12/17 14:05:36;;;;;;;463.77;389.05;;;;;;;-0.60;70.44;102369.19;4159398;28;24666;-60
2022/12/17 14:07:39;;;;;;;468.25;405.70;;;;;;;-0.62;70.34;102370.19;4161146;28;20876;-60
2022/12/17 14:09:43;;;;;;;466.92;403.10;;;;;;;-0.61;70.43;102370.13;4177269;28;24527;-58
2022/12/17 14:14:11;;;;;;;467.73;405.58;;;;;;;-0.63;70.39;102374.63;4171485;28;25204;-60
2022/12/17 14:16:15;;;;;;;470.00;413.98;;;;;;;-0.62;70.40;102379.00;4162933;28;20785;-60
2022/12/17 14:18:20;;;;;;;471.92;419.48;;;;;;;-0.60;70.14;102384.25;4164588;28;20827;-58
2022/12/17 14:20:24;;;;;;;472.97;420.70;;;;;;;-0.63;69.92;102376.44;4160545;28;20833;-60
2022/12/17 14:22:32;;;;;;;470.17;409.63;;;;;;;-0.66;70.08;102382.75;4154658;28;20838;-60
2022/12/17 14:24:35;;;;;;;468.13;403.83;;;;;;;-0.66;70.18;102387.16;4163182;28;20833;-59
2022/12/17 14:26:47;;;;;;;467.55;404.77;;;;;;;-0.67;70.11;102385.47;4165990;28;20840;-60
2022/12/17 14:28:51;;;;;;;469.30;413.92;;;;;;;-0.67;70.06;102383.66;4167689;28;25151;-60
2022/12/17 14:31:03;;;;;;;464.48;396.23;;;;;;;-0.70;70.03;102386.44;4162843;28;20774;-61
2022/12/17 14:33:25;;;;;;;466.50;405.95;;;;;;;-0.75;70.11;102383.13;4169125;28;25212;-60
2022/12/17 14:35:29;;;;;;;476.20;423.65;;;;;;;-0.76;70.29;102386.69;4164921;28;25138;-58
2022/12/17 14:37:32;;;;;;;467.52;405.27;;;;;;;-0.75;70.54;102383.13;4166811;28;21144;-59
2022/12/17 14:39:34;;;;;;;467.55;403.63;;;;;;;-0.75;70.44;102385.78;4160453;28;20859;-60
2022/12/17 14:43:59;;;;;;;469.27;413.27;;;;;;;-0.69;70.74;102387.28;4162330;28;20840;-60
2022/12/17 14:48:59;;;;;;;468.27;410.77;;;;;;;-0.67;70.43;102388.97;4174337;28;25116;-60
2022/12/17 14:50:54;;;;;;;465.80;405.65;;;;;;;-0.71;70.51;102394.47;4158736;28;25149;-60
2022/12/17 14:52:58;;;;;;;466.58;401.70;;;;;;;-0.71;70.64;102397.97;4161784;28;25184;-60
2022/12/17 14:55:01;;;;;;;470.15;413.40;;;;;;;-0.68;70.62;102405.81;4164233;28;20900;-57
2022/12/17 14:57:05;;;;;;;466.02;401.70;;;;;;;-0.71;70.55;102411.25;4171130;28;20890;-60
2022/12/17 14:59:23;;;;;;;471.20;417.92;;;;;;;-0.75;70.63;102420.28;4161779;28;20845;-60
2022/12/17 15:01:27;;;;;;;468.73;406.08;;;;;;;-0.73;70.63;102410.44;4162458;28;20666;-59
2022/12/17 15:03:32;;;;;;;470.17;409.97;;;;;;;-0.71;70.70;102408.59;4173169;28;20834;-60
2022/12/17 15:05:35;;;;;;;466.77;391.08;;;;;;;-0.74;70.81;102416.66;4158775;28;21153;-57
2022/12/17 15:07:39;;;;;;;466.02;400.60;;;;;;;-0.70;70.56;102420.94;4162622;28;21410;-58
2022/12/17 15:09:43;;;;;;;467.48;405.80;;;;;;;-0.71;70.59;102418.34;4168076;28;20831;-61
2022/12/17 15:11:45;;;;;;;466.45;397.38;;;;;;;-0.68;70.47;102419.06;4163979;28;20861;-58
2022/12/17 15:13:47;;;;;;;463.83;395.38;;;;;;;-0.71;70.34;102424.50;4162557;28;20759;-59
2022/12/17 15:15:49;;;;;;;465.33;399.08;;;;;;;-0.76;70.28;102434.44;4171928;28;20879;-60
2022/12/17 15:17:52;;;;;;;463.42;392.58;;;;;;;-0.90;70.17;102424.38;4161426;28;24857;-59
2022/12/17 15:19:55;;;;;;;464.27;394.13;;;;;;;-0.97;70.54;102426.44;4161955;28;20857;-60
2022/12/17 15:21:58;;;;;;;470.05;414.90;;;;;;;-0.99;70.92;102427.41;4164549;28;20841;-59
2022/12/17 15:24:00;;;;;;;463.45;388.85;;;;;;;-1.02;70.91;102428.41;4165414;28;24515;-61
2022/12/17 15:26:02;;;;;;;466.45;397.13;;;;;;;-1.01;71.15;102426.59;4171217;28;25022;-60
2022/12/17 15:28:05;;;;;;;464.42;393.60;;;;;;;-1.03;71.05;102423.16;4175650;28;24531;-59
2022/12/17 15:30:09;;;;;;;467.15;397.15;;;;;;;-1.07;71.12;102425.06;4171741;28;24885;-59
2022/12/17 15:32:18;;;;;;;469.70;414.58;;;;;;;-1.05;71.04;102440.91;4163988;28;24527;-60
2022/12/17 15:34:20;;;;;;;462.85;383.42;;;;;;;-1.16;71.16;102444.84;4160840;28;25259;-60
2022/12/17 15:36:24;;;;;;;464.45;393.60;;;;;;;-1.23;71.22;102448.66;4168241;28;20827;-58
2022/12/17 15:38:26;;;;;;;462.42;379.13;;;;;;;-1.27;71.43;102455.88;4174498;28;20847;-64
2022/12/17 15:40:29;;;;;;;467.70;400.70;;;;;;;-1.35;71.62;102460.59;4159063;28;24528;-61
2022/12/17 15:44:50;;;;;;;460.52;370.17;;;;;;;-1.37;71.94;102458.91;4163265;28;24528;-61
2022/12/17 15:46:58;;;;;;;477.10;424.35;;;;;;;-1.36;72.08;102463.31;4164148;28;24539;-61
2022/12/17 15:49:00;;;;;;;468.88;407.00;;;;;;;-1.36;72.20;102461.50;4161248;28;24859;-67
2022/12/17 15:51:02;;;;;;;467.08;398.70;;;;;;;-1.35;72.36;102457.94;4162928;28;24580;-61
2022/12/17 15:53:06;;;;;;;462.47;381.03;;;;;;;-1.36;72.41;102464.16;4163702;28;24523;-61
2022/12/17 15:55:12;;;;;;;468.02;399.00;;;;;;;-1.33;72.67;102465.84;4158925;28;24974;-61
2022/12/17 15:57:15;;;;;;;468.48;406.65;;;;;;;-1.32;72.60;102472.84;4164233;28;24527;-61
2022/12/17 15:59:17;;;;;;;469.60;410.02;;;;;;;-1.29;72.53;102468.28;4160532;28;24515;-61
2022/12/17 16:01:20;;;;;;;466.02;395.45;;;;;;;-1.29;72.35;102470.09;4160475;28;24515;-61
2022/12/17 16:03:22;;;;;;;469.33;412.65;;;;;;;-1.34;72.23;102469.41;4161479;28;24511;-61
2022/12/17 16:05:24;;;;;;;468.92;404.90;;;;;;;-1.40;72.20;102474.94;4160330;28;24515;-62
2022/12/17 16:07:27;;;;;;;468.98;407.63;;;;;;;-1.48;72.32;102476.06;4164281;28;24519;-59
2022/12/17 16:09:31;;;;;;;466.25;397.48;;;;;;;-1.57;72.52;102479.06;4173737;28;24863;-56
2022/12/17 16:11:33;;;;;;;467.17;402.10;;;;;;;-1.54;72.71;102483.38;4171898;28;24522;-62
2022/12/17 16:13:35;;;;;;;466.88;401.35;;;;;;;-1.56;72.58;102479.94;4168872;28;24523;-61
2022/12/17 16:15:37;;;;;;;427.57;265.17;;;;;;;-1.70;72.94;102478.63;4164575;28;20223;-60
2022/12/17 16:17:40;;;;;;;417.37;225.23;;;;;;;-1.91;73.79;102476.72;4163237;28;20386;-61
2022/12/17 16:19:42;;;;;;;413.77;206.47;;;;;;;-2.03;74.49;102476.25;4164393;28;20660;-62
2022/12/17 16:21:45;;;;;;;471.73;412.30;;;;;;;-2.06;75.06;102481.66;4167242;28;24879;-56
2022/12/17 16:23:47;;;;;;;470.58;411.98;;;;;;;-2.00;74.66;102492.03;4175979;28;24459;-56
2022/12/17 16:25:57;;;;;;;474.98;422.52;;;;;;;-1.93;74.25;102490.03;4166599;28;24864;-61
2022/12/17 16:28:00;;;;;;;468.25;402.88;;;;;;;-1.91;74.28;102488.22;4163116;28;24503;-60
2022/12/17 16:30:03;;;;;;;469.77;413.58;;;;;;;-1.86;74.22;102485.41;4168871;28;24522;-60
2022/12/17 16:32:05;;;;;;;471.08;417.55;;;;;;;-1.79;74.13;102492.19;4174618;28;24862;-59
2022/12/17 16:34:08;;;;;;;468.15;410.10;;;;;;;-1.78;73.83;102488.66;4160233;28;24523;-58
2022/12/17 16:36:12;;;;;;;474.07;421.77;;;;;;;-1.76;73.96;102488.59;4158758;28;25064;-58
2022/12/17 16:38:15;;;;;;;467.83;407.80;;;;;;;-1.74;73.96;102486.75;4160653;28;24511;-60
2022/12/17 16:40:17;;;;;;;510.52;457.38;;;;;;;-1.75;73.73;102491.19;4166332;28;24534;-60
2022/12/17 16:42:20;;;;;;;464.58;394.95;;;;;;;-1.76;73.65;102488.59;4165811;28;25140;-61
2022/12/17 16:44:23;;;;;;;480.77;428.50;;;;;;;-1.73;73.66;102488.47;4164579;28;24579;-62
2022/12/17 16:46:27;;;;;;;460.45;366.85;;;;;;;-1.77;73.60;102498.34;4160280;28;24471;-62
2022/12/17 16:48:36;;;;;;;462.92;380.38;;;;;;;-1.81;73.73;102497.56;4165687;28;20880;-60
2022/12/17 16:50:39;;;;;;;458.98;368.38;;;;;;;-1.82;73.50;102506.44;4161442;28;24510;-59
2022/12/17 16:52:41;;;;;;;470.73;410.77;;;;;;;-1.78;73.75;102501.88;4170933;28;24890;-61
2022/12/17 16:54:43;;;;;;;457.80;362.08;;;;;;;-1.77;73.46;102505.38;4171549;28;25341;-60
2022/12/17 16:56:46;;;;;;;454.63;343.75;;;;;;;-1.77;73.38;102503.63;4158900;28;24549;-61
2022/12/17 16:58:51;;;;;;;457.75;359.38;;;;;;;-1.81;73.01;102502.84;4159365;28;25061;-62
2022/12/17 17:00:53;;;;;;;460.13;372.55;;;;;;;-1.84;72.80;102508.25;4159651;28;24440;-61
2022/12/17 17:02:58;;;;;;;455.00;354.60;;;;;;;-1.95;72.76;102509.56;4157434;28;24520;-61
2022/12/17 17:05:01;;;;;;;462.83;381.38;;;;;;;-2.03;72.99;102504.53;4142609;28;24563;-61
2022/12/17 17:07:03;;;;;;;456.10;356.98;;;;;;;-2.04;73.45;102508.97;4166443;28;24507;-57
2022/12/17 17:09:05;;;;;;;460.33;369.05;;;;;;;-2.02;73.64;102511.56;4160097;28;24508;-60
2022/12/17 17:11:10;;;;;;;459.23;375.50;;;;;;;-2.05;73.66;102507.22;4157656;28;24527;-60
2022/12/17 17:13:13;;;;;;;456.85;360.02;;;;;;;-2.03;74.00;102507.16;4165590;28;24560;-60
2022/12/17 17:15:19;;;;;;;465.45;402.50;;;;;;;-2.01;74.19;102516.81;4162385;28;24462;-57
2022/12/17 17:17:22;;;;;;;487.90;435.08;;;;;;;-2.00;74.16;102515.00;4161544;28;24828;-59
2022/12/17 17:19:25;;;;;;;464.05;394.88;;;;;;;-2.01;73.96;102514.16;4159663;28;24880;-61
2022/12/17 17:21:29;;;;;;;467.80;407.98;;;;;;;-2.01;73.83;102514.16;4157380;28;25090;-60
2022/12/17 17:23:32;;;;;;;473.73;420.42;;;;;;;-2.06;74.09;102516.06;4157608;28;24431;-60
2022/12/17 17:25:35;;;;;;;486.50;433.70;;;;;;;-2.06;74.14;102526.66;4156816;28;24519;-62
2022/12/17 17:27:38;;;;;;;463.08;391.05;;;;;;;-2.02;74.30;102519.50;4170501;28;25039;-57
2022/12/17 17:29:40;;;;;;;466.73;403.90;;;;;;;-1.97;74.12;102524.66;4168167;28;24523;-59
2022/12/17 17:31:45;;;;;;;470.77;418.70;;;;;;;-1.99;74.11;102527.34;4173408;28;24502;-60
2022/12/17 17:33:48;;;;;;;489.42;436.77;;;;;;;-2.05;73.61;102531.06;4172657;28;24527;-59
2022/12/17 17:35:50;;;;;;;506.20;453.48;;;;;;;-2.11;73.69;102530.41;4159181;28;24515;-60
2022/12/17 17:37:53;;;;;;;467.70;408.98;;;;;;;-2.16;73.74;102530.53;4161734;28;24428;-60
2022/12/17 17:39:55;;;;;;;460.98;382.13;;;;;;;-2.20;73.57;102529.75;4163137;28;24510;-59
2022/12/17 17:41:57;;;;;;;480.90;428.52;;;;;;;-2.21;73.74;102541.28;4169327;28;24531;-60
2022/12/17 17:44:01;;;;;;;465.93;398.73;;;;;;;-2.25;73.67;102544.94;4172790;28;24612;-60
2022/12/17 17:46:04;;;;;;;467.45;405.38;;;;;;;-2.36;73.68;102542.63;4172587;28;24543;-59
2022/12/17 17:48:08;;;;;;;461.75;389.08;;;;;;;-2.38;73.80;102540.97;4169996;28;24519;-62
2022/12/17 17:50:10;;;;;;;523.53;469.77;;;;;;;-2.39;74.10;102539.22;4164737;28;24540;-60
2022/12/17 17:52:12;;;;;;;466.33;402.85;;;;;;;-2.32;74.40;102547.81;4164747;28;20829;-62
2022/12/17 17:54:15;;;;;;;533.70;480.52;;;;;;;-2.26;74.44;102558.22;4157314;28;24885;-59
2022/12/17 17:56:18;;;;;;;552.90;498.98;;;;;;;-2.25;74.31;102554.66;4160750;28;24531;-59
2022/12/17 17:58:21;;;;;;;511.20;458.13;;;;;;;-2.22;74.21;102546.63;4164445;28;24434;-61
2022/12/17 18:00:23;;;;;;;473.88;421.25;;;;;;;-2.28;73.85;102545.03;4168288;28;25223;-60
2022/12/17 18:02:25;;;;;;;466.75;406.23;;;;;;;-2.33;74.27;102552.25;4170083;28;24527;-59
2022/12/17 18:04:29;;;;;;;480.90;428.33;;;;;;;-2.31;74.32;102553.06;4171041;28;24511;-58
2022/12/17 18:06:32;;;;;;;510.58;456.98;;;;;;;-2.29;74.27;102556.53;4163891;28;25056;-57
2022/12/17 18:08:35;;;;;;;485.10;432.20;;;;;;;-2.28;74.12;102547.69;4162093;28;24518;-58
2022/12/17 18:10:37;;;;;;;506.45;453.48;;;;;;;-2.27;74.27;102556.47;4164807;28;24502;-59
2022/12/17 18:14:59;;;;;;;479.35;426.70;;;;;;;-2.35;74.30;102564.69;4161234;28;24532;-60
2022/12/17 18:17:02;;;;;;;556.17;501.67;;;;;;;-2.32;74.25;102564.59;4168901;28;20887;-60
2022/12/17 18:19:08;;;;;;;595.28;539.95;;;;;;;-2.33;74.01;102562.84;4171906;28;24524;-59
2022/12/17 18:21:13;;;;;;;516.78;463.30;;;;;;;-2.33;74.24;102564.66;4169117;28;20754;-60
2022/12/17 18:23:15;;;;;;;514.95;461.35;;;;;;;-2.33;74.27;102567.28;4169147;28;25041;-60
2022/12/17 18:25:18;;;;;;;498.92;445.60;;;;;;;-2.39;74.21;102570.97;4163108;28;24519;-61
2022/12/17 18:27:21;;;;;;;475.88;423.45;;;;;;;-2.41;74.20;102565.75;4169914;28;25134;-60
2022/12/17 18:29:27;;;;;;;470.08;416.17;;;;;;;-2.40;74.46;102569.25;4178617;28;24780;-61
2022/12/17 18:31:31;;;;;;;504.38;451.25;;;;;;;-2.40;74.30;102571.88;4166978;28;24510;-60
2022/12/17 18:33:33;;;;;;;543.03;488.67;;;;;;;-2.45;74.24;102568.53;4167289;28;20862;-61
2022/12/17 18:35:36;;;;;;;467.38;408.00;;;;;;;-2.44;74.36;102563.19;4162431;28;24405;-60
2022/12/17 18:37:39;;;;;;;478.60;426.10;;;;;;;-2.48;74.23;102582.72;4169192;28;24562;-60
2022/12/17 18:39:42;;;;;;;508.98;455.70;;;;;;;-2.49;74.10;102582.75;4167015;28;20823;-61
2022/12/17 18:44:06;;;;;;;516.00;462.55;;;;;;;-2.61;74.15;102584.00;4161556;28;25143;-56
2022/12/17 18:46:08;;;;;;;513.10;459.73;;;;;;;-2.63;74.07;102586.69;4164851;28;24532;-56
2022/12/17 18:48:10;;;;;;;495.75;442.75;;;;;;;-2.65;74.16;102585.00;4165039;28;20843;-57
2022/12/17 18:50:12;;;;;;;533.03;479.38;;;;;;;-2.62;74.27;102591.06;4168092;28;25820;-58
2022/12/17 18:52:16;;;;;;;408.20;177.27;;;;;;;-2.76;74.45;102588.84;4170934;28;20283;-59
2022/12/17 18:54:21;;;;;;;481.02;428.08;;;;;;;-2.80;75.02;102591.63;4159178;28;24535;-59
2022/12/17 18:56:23;;;;;;;468.05;401.92;;;;;;;-2.84;74.70;102580.25;4160669;28;24524;-58
2022/12/17 18:58:26;;;;;;;419.37;208.40;;;;;;;-2.93;74.95;102599.91;4167206;28;20310;-60
2022/12/17 19:00:28;;;;;;;469.05;393.45;;;;;;;-3.01;75.41;102603.69;4157894;28;20756;-58
2022/12/17 19:02:30;;;;;;;477.42;412.67;;;;;;;-3.00;75.73;102606.28;4166627;28;24515;-59
2022/12/17 19:04:33;;;;;;;466.30;395.08;;;;;;;-2.90;75.81;102607.75;4171226;28;20852;-54
2022/12/17 19:06:37;;;;;;;458.47;352.73;;;;;;;-2.83;75.61;102615.53;4162426;28;25139;-58
2022/12/17 19:08:39;;;;;;;468.05;395.80;;;;;;;-2.78;75.59;102611.81;4168733;28;24838;-58
2022/12/17 19:10:54;;;;;;;468.38;394.52;;;;;;;-2.70;75.48;102611.59;4161705;28;24511;-60
2022/12/17 19:12:57;;;;;;;476.67;414.88;;;;;;;-2.65;75.20;102609.69;4163565;28;20696;-60
2022/12/17 19:14:59;;;;;;;473.90;412.55;;;;;;;-2.60;75.03;102620.13;4158573;28;24551;-58
2022/12/17 19:17:02;;;;;;;471.08;414.92;;;;;;;-2.57;74.81;102620.03;4159460;28;20888;-61
2022/12/17 19:19:05;;;;;;;419.17;224.90;;;;;;;-2.76;74.58;102623.25;4161109;28;20298;-60
2022/12/17 19:21:08;;;;;;;414.43;193.63;;;;;;;-3.04;74.95;102622.28;4167648;28;20243;-59
2022/12/17 19:23:11;;;;;;;414.03;187.63;;;;;;;-3.21;76.03;102625.38;4160756;28;20286;-57
2022/12/17 19:25:13;;;;;;;420.60;208.03;;;;;;;-3.35;76.55;102631.06;4160037;28;20283;-60
2022/12/17 19:27:16;;;;;;;412.87;189.27;;;;;;;-3.47;76.76;102624.31;4162464;28;20279;-59
2022/12/17 19:29:20;;;;;;;409.87;182.10;;;;;;;-3.65;76.99;102623.88;4166886;28;20279;-60
2022/12/17 19:31:24;;;;;;;406.30;170.77;;;;;;;-3.75;77.57;102629.41;4157807;28;20314;-58
2022/12/17 19:33:27;;;;;;;417.70;205.70;;;;;;;-3.82;77.90;102629.56;4165188;28;20279;-60
2022/12/17 19:35:29;;;;;;;410.13;175.07;;;;;;;-3.91;78.18;102631.56;4169406;28;20301;-60
2022/12/17 19:37:31;;;;;;;406.63;170.13;;;;;;;-3.95;78.41;102637.81;4171860;28;20730;-60
2022/12/17 19:39:34;;;;;;;416.50;201.23;;;;;;;-3.96;78.60;102644.88;4162024;28;21680;-58
2022/12/17 19:41:36;;;;;;;406.43;168.57;;;;;;;-4.06;78.87;102628.41;4160819;28;20646;-60
2022/12/17 19:43:40;;;;;;;417.00;181.97;;;;;;;-4.00;79.14;102645.84;4162659;28;20286;-61
2022/12/17 19:45:42;;;;;;;408.33;160.93;;;;;;;-4.03;78.94;102636.25;4161388;28;20777;-60
2022/12/17 19:47:45;;;;;;;405.30;154.40;;;;;;;-4.06;79.15;102643.34;4152644;28;20243;-60
2022/12/17 19:49:47;;;;;;;416.63;194.37;;;;;;;-4.12;79.22;102647.00;4160119;28;20664;-60
2022/12/17 19:51:49;;;;;;;410.67;178.47;;;;;;;-4.22;79.42;102648.09;4159593;28;20741;-59
2022/12/17 19:53:52;;;;;;;415.30;188.27;;;;;;;-4.18;79.68;102657.69;4151571;28;20729;-58
2022/12/17 19:55:54;;;;;;;403.50;157.87;;;;;;;-4.17;79.97;102662.06;4152998;28;20738;-60
2022/12/17 19:57:56;;;;;;;417.40;192.83;;;;;;;-4.15;79.96;102657.63;4160192;28;20315;-60
2022/12/17 20:00:00;;;;;;;415.20;180.00;;;;;;;-4.14;79.98;102654.06;4161490;28;20661;-60
2022/12/17 20:02:02;;;;;;;415.13;162.70;;;;;;;-4.12;80.17;102661.97;4160889;28;20828;-57
2022/12/17 20:04:05;;;;;;;415.50;162.73;;;;;;;-4.09;80.49;102662.78;4162275;28;20275;-60
2022/12/17 20:06:09;;;;;;;423.90;209.10;;;;;;;-4.08;80.30;102661.00;4158122;28;20311;-59
2022/12/17 20:08:12;;;;;;;414.10;175.37;;;;;;;-4.08;80.11;102659.22;4162663;28;20284;-60
2022/12/17 20:10:14;;;;;;;410.93;170.00;;;;;;;-4.11;80.17;102658.44;4161642;28;20299;-60
2022/12/17 20:12:16;;;;;;;415.13;191.97;;;;;;;-4.11;80.09;102671.63;4162951;28;20283;-60
2022/12/17 20:14:20;;;;;;;418.47;206.33;;;;;;;-4.13;79.87;102668.16;4164017;28;20294;-59
2022/12/17 20:16:24;;;;;;;417.67;206.60;;;;;;;-4.22;79.85;102670.06;4159861;28;20310;-59
2022/12/17 20:18:26;;;;;;;414.00;189.87;;;;;;;-4.28;79.82;102670.25;4161750;28;20745;-60
2022/12/17 20:20:28;;;;;;;427.63;220.13;;;;;;;-4.35;80.05;102677.41;4161619;28;20992;-59
2022/12/17 20:22:31;;;;;;;427.97;224.90;;;;;;;-4.40;80.18;102688.97;4158232;28;20656;-59
2022/12/17 20:24:33;;;;;;;433.13;234.93;;;;;;;-4.45;80.14;102683.78;4160104;28;20295;-59
2022/12/17 20:26:36;;;;;;;426.67;212.63;;;;;;;-4.46;80.42;102683.81;4157757;28;20318;-60
2022/12/17 20:28:38;;;;;;;426.07;202.07;;;;;;;-4.44;80.74;102688.13;4161396;28;20294;-60
2022/12/17 20:30:41;;;;;;;424.37;214.63;;;;;;;-4.41;80.74;102679.31;4160590;28;20317;-60
2022/12/17 20:32:44;;;;;;;427.33;232.07;;;;;;;-4.45;80.69;102669.72;4160991;28;20306;-61
2022/12/17 20:34:47;;;;;;;427.70;228.37;;;;;;;-4.46;80.93;102682.03;4171078;28;20286;-60
2022/12/17 20:36:49;;;;;;;426.27;225.30;;;;;;;-4.41;80.81;102685.44;4167593;28;20313;-61
2022/12/17 20:38:52;;;;;;;431.97;244.17;;;;;;;-4.41;80.65;102684.59;4163067;28;20303;-60
2022/12/17 20:40:54;;;;;;;432.17;228.80;;;;;;;-4.38;80.91;102687.16;4159697;28;20551;-59
2022/12/17 20:42:56;;;;;;;425.60;213.97;;;;;;;-4.36;80.69;102690.63;4160855;28;20733;-59
2022/12/17 20:44:58;;;;;;;426.80;215.13;;;;;;;-4.38;80.56;102705.63;4160450;28;20294;-60
2022/12/17 20:47:01;;;;;;;428.60;220.57;;;;;;;-4.43;80.34;102694.31;4163412;28;20290;-60
2022/12/17 20:49:05;;;;;;;421.57;214.97;;;;;;;-4.46;79.94;102699.66;4176700;28;20701;-59
2022/12/17 20:51:13;;;;;;;460.45;339.10;;;;;;;-4.38;79.94;102695.94;4159361;28;24848;-60
2022/12/17 20:53:15;;;;;;;462.63;354.23;;;;;;;-4.22;79.08;102690.31;4171715;28;24522;-60
2022/12/17 20:55:18;;;;;;;420.17;225.40;;;;;;;-4.14;78.94;102698.06;4171276;28;20670;-61
2022/12/17 20:57:20;;;;;;;463.50;353.13;;;;;;;-4.07;78.87;102692.63;4167972;28;24515;-60
2022/12/17 20:59:22;;;;;;;468.48;381.25;;;;;;;-3.91;78.61;102700.22;4164205;28;25168;-57
2022/12/17 21:01:27;;;;;;;467.85;384.17;;;;;;;-3.77;77.96;102705.16;4158157;28;24511;-60
2022/12/17 21:03:31;;;;;;;420.27;216.93;;;;;;;-3.81;77.70;102701.72;4165699;28;20203;-58
2022/12/17 21:05:35;;;;;;;427.77;239.90;;;;;;;-3.97;77.85;102695.91;4175101;28;20305;-60
2022/12/17 21:07:38;;;;;;;424.33;222.63;;;;;;;-4.05;78.48;102701.38;4176387;28;20275;-61
2022/12/17 21:09:40;;;;;;;426.10;217.63;;;;;;;-4.13;78.89;102703.31;4176317;28;20687;-60
2022/12/17 21:11:42;;;;;;;418.73;199.30;;;;;;;-4.21;79.10;102707.91;4175407;28;20673;-60
2022/12/17 21:13:45;;;;;;;428.50;233.40;;;;;;;-4.26;79.39;102704.47;4174874;28;20733;-61
2022/12/17 21:15:49;;;;;;;421.33;213.97;;;;;;;-4.29;79.74;102708.06;4161862;28;20303;-60
2022/12/17 21:17:51;;;;;;;429.77;250.57;;;;;;;-4.34;79.91;102704.66;4163426;28;20278;-61
2022/12/17 21:19:53;;;;;;;423.57;238.23;;;;;;;-4.34;80.13;102704.66;4169436;28;20307;-59
2022/12/17 21:21:57;;;;;;;421.10;226.17;;;;;;;-4.37;80.04;102704.72;4160062;28;20781;-59
2022/12/17 21:24:00;;;;;;;417.80;212.90;;;;;;;-4.42;80.07;102707.47;4160013;28;20675;-60
2022/12/17 21:26:05;;;;;;;423.93;235.07;;;;;;;-4.45;80.24;102712.81;4154145;28;20310;-59
2022/12/17 21:28:08;;;;;;;427.80;244.07;;;;;;;-4.45;80.18;102720.72;4159861;28;20309;-60
2022/12/17 21:30:15;;;;;;;422.67;217.27;;;;;;;-4.52;80.25;102712.03;4159043;28;20302;-57
2022/12/17 21:32:17;;;;;;;423.27;214.70;;;;;;;-4.57;80.17;102719.19;4159920;28;20281;-59
2022/12/17 21:34:21;;;;;;;430.23;252.87;;;;;;;-4.65;79.91;102712.34;4160575;28;20294;-61
2022/12/17 21:36:25;;;;;;;457.57;311.23;;;;;;;-4.68;80.07;102720.31;4169857;28;20321;-60
2022/12/17 21:38:28;;;;;;;446.83;283.20;;;;;;;-4.65;80.14;102717.63;4174505;28;20301;-56
2022/12/17 21:40:31;;;;;;;439.87;264.33;;;;;;;-4.57;80.16;102726.22;4160914;28;20307;-58
2022/12/17 21:44:53;;;;;;;443.60;283.83;;;;;;;-4.62;79.70;102728.97;4167220;28;20646;-61
2022/12/17 21:46:55;;;;;;;450.20;313.43;;;;;;;-4.68;79.87;102728.22;4159669;28;20323;-60
2022/12/17 21:48:59;;;;;;;438.43;269.93;;;;;;;-4.72;79.82;102737.94;4161969;28;20729;-56
2022/12/17 21:51:04;;;;;;;438.27;270.37;;;;;;;-4.75;79.63;102738.88;4162132;28;20306;-59
2022/12/17 21:53:06;;;;;;;439.23;273.43;;;;;;;-4.81;79.92;102730.19;4162954;28;20290;-60
2022/12/17 21:55:10;;;;;;;445.30;288.07;;;;;;;-4.83;79.67;102738.13;4161514;28;20274;-57
2022/12/17 21:57:12;;;;;;;430.53;243.83;;;;;;;-4.87;79.98;102744.38;4155412;28;20728;-57
2022/12/17 21:59:14;;;;;;;429.00;232.50;;;;;;;-4.89;80.19;102740.88;4163031;28;20380;-60
2022/12/17 22:01:18;;;;;;;426.77;230.27;;;;;;;-4.86;80.11;102743.47;4162451;28;20311;-58
2022/12/17 22:03:20;;;;;;;421.73;214.47;;;;;;;-4.85;80.12;102742.56;4161724;28;20287;-60
2022/12/17 22:05:23;;;;;;;420.23;209.07;;;;;;;-4.89;80.01;102741.78;4162042;28;20219;-57
2022/12/17 22:07:28;;;;;;;428.77;246.90;;;;;;;-4.90;79.96;102744.44;4174626;28;20641;-58
2022/12/17 22:09:30;;;;;;;425.43;229.37;;;;;;;-4.94;79.93;102745.38;4178725;28;20759;-59
2022/12/17 22:11:34;;;;;;;447.87;271.03;;;;;;;-4.97;80.10;102748.06;4169239;28;20323;-59
2022/12/17 22:15:54;;;;;;;429.37;235.17;;;;;;;-4.99;80.51;102741.97;4154416;28;20327;-61
2022/12/17 22:17:56;;;;;;;434.33;258.57;;;;;;;-4.98;80.56;102739.28;4162887;28;20287;-59
2022/12/17 22:19:58;;;;;;;434.53;255.47;;;;;;;-5.00;80.56;102750.75;4170491;28;20646;-60
2022/12/17 22:22:00;;;;;;;431.47;247.70;;;;;;;-4.99;80.67;102747.22;4173546;28;20717;-59
2022/12/17 22:24:03;;;;;;;418.07;195.97;;;;;;;-5.01;80.75;102760.44;4172321;28;20716;-59
2022/12/17 22:26:08;;;;;;;421.13;215.23;;;;;;;-5.03;80.64;102769.25;4162288;28;20767;-60
2022/12/17 22:28:12;;;;;;;419.00;203.47;;;;;;;-5.04;80.80;102762.25;4174492;28;20233;-61
2022/12/17 22:34:59;;;;;;;418.40;201.13;;;;;;;-5.03;81.12;102766.63;4164007;28;20251;-60
2022/12/17 22:37:01;;;;;;;422.47;217.20;;;;;;;-5.03;80.97;102763.97;4167237;28;20287;-60
2022/12/17 22:39:05;;;;;;;421.60;211.93;;;;;;;-5.03;81.04;102764.88;4167531;28;20662;-60